Celtic Explorer — EIGB — position and weather

sailwx.info

Track history (hours):
 
Tides and Currents Weather Stations Pressure Air Temp Water Temp Dewpoint Dewpoint Depression Visibility Wind Speed Wind Dir Waves Ship Positions

Oceanographic research ship Celtic Explorer (Ireland)

Detailed information on ship capabilities available from University of Delaware's Ocean Information Center.

Last reported at 2017-Oct-22 15:00 UTC. Time now 2017-Oct-22 15:25 UTC.
Position N 51°52' W 007°00'.

Type: . MMSI: 250487000.

Date/timePositionNaut miles runAvg speedWind from/ knotsBaromVisibWave heightAir tempDewpointWater temp
2017-Oct-22 15:00N 51°52' W 007°00'4 9.0
2017-Oct-22 14:30N 51°57' W 007°00'5 9.0
2017-Oct-22 14:00N 52°01' W 007°01'4 7.8
2017-Oct-22 13:30N 52°05' W 007°01'4 7.8
2017-Oct-22 13:00N 52°06' W 007°07'4 8.5
2017-Oct-22 12:30N 52°05' W 007°13'3 5.5
2017-Oct-22 12:00N 52°02' W 007°13'5 9.2
2017-Oct-22 11:30N 51°57' W 007°13'5 9.6
2017-Oct-22 11:00N 51°53' W 007°14'5 9.4
2017-Oct-22 10:30N 51°48' W 007°13'5 9.4
2017-Oct-22 09:59N 51°43' W 007°13'5 9.3
2017-Oct-22 09:29N 51°38' W 007°14'22 3.0
2017-Oct-22 01:57N 51°23' W 007°40'410.1
2017-Oct-22 01:30N 51°27' W 007°45'510.2
2017-Oct-22 01:00N 51°30' W 007°51'510.2
2017-Oct-22 00:30N 51°34' W 007°57'510.2
2017-Oct-22 00:00N 51°37' W 008°02'510.1
2017-Oct-21 23:30N 51°41' W 008°08'4 8.4
2017-Oct-21 23:00N 51°44' W 008°13'3 6.6
2017-Oct-21 22:30N 51°47' W 008°15'4 8.4
2017-Oct-21 22:00N 51°51' W 008°17'4 8.4
2017-Oct-21 21:30N 51°54' W 008°23'3 5.8
2017-Oct-21 21:00N 51°54' W 008°27'0 0.1
2017-Oct-21 20:30N 51°54' W 008°27'0 0.0
2017-Oct-21 19:59N 51°54' W 008°27'0 0.0
2017-Oct-21 19:29N 51°54' W 008°27'0 0.0
2017-Oct-21 18:56N 51°54' W 008°27'0 0.0
2017-Oct-21 18:29N 51°54' W 008°27'0 0.0
2017-Oct-21 17:59N 51°54' W 008°27'0 0.0
2017-Oct-21 17:29N 51°54' W 008°27'0 0.0
2017-Oct-21 16:59N 51°54' W 008°27'0 0.0
2017-Oct-21 16:20N 51°54' W 008°27'0 0.0
2017-Oct-21 15:59N 51°54' W 008°27'0 0.0
2017-Oct-21 15:14N 51°54' W 008°27'0 0.0
2017-Oct-21 14:56N 51°54' W 008°27'0 0.0
2017-Oct-21 13:59N 51°54' W 008°27'0 0.0
2017-Oct-21 13:29N 51°54' W 008°27'0 0.0
2017-Oct-21 12:59N 51°54' W 008°27'0 0.0
2017-Oct-21 12:29N 51°54' W 008°27'0 0.0
2017-Oct-21 11:59N 51°54' W 008°27'0 0.0
2017-Oct-21 11:26N 51°54' W 008°27'0 0.0
2017-Oct-21 10:59N 51°54' W 008°27'0 0.0
2017-Oct-21 10:29N 51°54' W 008°27'0 0.0
2017-Oct-21 09:56N 51°54' W 008°27'0 0.0
2017-Oct-21 09:29N 51°54' W 008°27'0 0.0
2017-Oct-21 08:59N 51°54' W 008°27'0 0.0
2017-Oct-21 08:29N 51°54' W 008°27'0 0.0
2017-Oct-21 07:59N 51°54' W 008°27'0 0.0
2017-Oct-21 07:29N 51°54' W 008°27'0 0.0
2017-Oct-21 06:50N 51°54' W 008°27'0 0.0
2017-Oct-21 06:29N 51°54' W 008°27'0 0.0
2017-Oct-21 05:59N 51°54' W 008°27'0 0.0
2017-Oct-21 05:29N 51°54' W 008°27'0 0.0
2017-Oct-21 04:59N 51°54' W 008°27'0 0.0
2017-Oct-21 04:26N 51°54' W 008°27'0 0.0
2017-Oct-21 03:59N 51°54' W 008°27'0 0.0
2017-Oct-21 03:29N 51°54' W 008°27'0 0.0
2017-Oct-21 02:59N 51°54' W 008°27'0 0.0
2017-Oct-21 02:29N 51°54' W 008°27'0 0.0
2017-Oct-21 01:59N 51°54' W 008°27'0 0.0
2017-Oct-21 01:17N 51°54' W 008°27'0 0.0
2017-Oct-21 00:56N 51°54' W 008°27'0 0.0
2017-Oct-21 00:29N 51°54' W 008°27'0 0.0
2017-Oct-20 23:59N 51°54' W 008°27'0 0.0
2017-Oct-20 23:29N 51°54' W 008°27'0 0.0
2017-Oct-20 22:59N 51°54' W 008°27'0 0.0
2017-Oct-20 22:29N 51°54' W 008°27'0 0.0
2017-Oct-20 21:56N 51°54' W 008°27'0 0.0
2017-Oct-20 21:29N 51°54' W 008°27'0 0.0
2017-Oct-20 20:56N 51°54' W 008°27'0 0.0
2017-Oct-20 20:30N 51°54' W 008°27'2 3.8
2017-Oct-20 20:00N 51°54' W 008°24'4 8.6
2017-Oct-20 19:30N 51°51' W 008°20'3 6.1
2017-Oct-20 19:00N 51°49' W 008°16'510.3
2017-Oct-20 18:30N 51°44' W 008°13'510.5
2017-Oct-20 18:00N 51°40' W 008°07'510.8
2017-Oct-20 17:30N 51°36' W 008°01'510.8
2017-Oct-20 17:00N 51°33' W 007°54'510.6
2017-Oct-20 16:30N 51°29' W 007°48'510.8
2017-Oct-20 16:00N 51°25' W 007°42'12 1.9
2017-Oct-20 09:37N 51°18' W 007°26'1 4.3
2017-Oct-20 09:29N 51°19' W 007°26'21 7.9
2017-Oct-20 06:53N 51°40' W 007°26'4 8.5
2017-Oct-20 06:24N 51°44' W 007°26'2 4.2
2017-Oct-20 06:00N 51°45' W 007°26'4 8.7
2017-Oct-20 05:30N 51°50' W 007°26'4 8.9
2017-Oct-20 05:00N 51°54' W 007°26'5 9.1
2017-Oct-20 04:30N 51°59' W 007°26'3 6.5
2017-Oct-20 04:00N 52°02' W 007°26'1 2.7
2017-Oct-20 03:30N 52°02' W 007°28'5 9.7
2017-Oct-20 02:57N 51°58' W 007°34'4 9.0
2017-Oct-20 02:30N 51°55' W 007°39'5 9.3
2017-Oct-20 02:00N 51°51' W 007°39'5 9.4
2017-Oct-20 01:30N 51°46' W 007°39'4 8.9
2017-Oct-20 01:00N 51°41' W 007°39'4 8.5
2017-Oct-20 00:30N 51°37' W 007°39'4 7.9
2017-Oct-20 00:00N 51°33' W 007°39'4 7.3
2017-Oct-19 23:30N 51°30' W 007°39'3 6.8
2017-Oct-19 23:00N 51°26' W 007°39'4 6.4
2017-Oct-19 22:20N 51°22' W 007°39'2 5.8
2017-Oct-19 21:56N 51°19' W 007°39'16 1.0
2017-Oct-19 06:44N 51°06' W 007°51'3 7.7
2017-Oct-19 06:24N 51°08' W 007°51'3 7.8
2017-Oct-19 05:58N 51°12' W 007°52'4 7.7
2017-Oct-19 05:29N 51°15' W 007°51'4 7.6
2017-Oct-19 05:00N 51°19' W 007°51'4 7.5
2017-Oct-19 04:30N 51°23' W 007°51'4 7.5
2017-Oct-19 04:00N 51°27' W 007°51'4 7.7
2017-Oct-19 03:30N 51°30' W 007°51'4 7.8
2017-Oct-19 03:00N 51°34' W 007°51'4 8.1
2017-Oct-19 02:30N 51°38' W 007°52'4 8.1
2017-Oct-19 02:00N 51°42' W 007°51'4 8.1
2017-Oct-19 01:30N 51°46' W 007°51'3 5.5
2017-Oct-19 01:00N 51°49' W 007°53'3 6.3
2017-Oct-19 00:30N 51°47' W 007°57'5 9.6
2017-Oct-19 00:00N 51°45' W 008°04'510.1
2017-Oct-18 23:30N 51°40' W 008°05'510.2
2017-Oct-18 23:00N 51°35' W 008°04'510.1
2017-Oct-18 22:30N 51°30' W 008°05'5 9.9
2017-Oct-18 22:00N 51°25' W 008°05'5 9.8
2017-Oct-18 21:30N 51°20' W 008°05'5 9.7
2017-Oct-18 21:00N 51°15' W 008°05'5 9.8
2017-Oct-18 20:30N 51°11' W 008°05'5 9.8
2017-Oct-18 20:00N 51°06' W 008°05'6 9.6
2017-Oct-18 19:24N 50°60' W 008°05'16 1.8
2017-Oct-18 10:14N 51°14' W 008°17'2 8.3
2017-Oct-18 09:59N 51°16' W 008°17'3 5.8
2017-Oct-18 09:30N 51°19' W 008°17'2 4.8
2017-Oct-18 09:00N 51°21' W 008°17'5 9.2
2017-Oct-18 08:30N 51°26' W 008°17'0 0.2
2017-Oct-18 08:00N 51°26' W 008°18'2 4.2
2017-Oct-18 07:30N 51°24' W 008°17'2 4.2
2017-Oct-18 07:00N 51°26' W 008°17'5 9.3
2017-Oct-18 06:30N 51°31' W 008°17'5 9.5
2017-Oct-18 06:00N 51°35' W 008°18'5 9.4
2017-Oct-18 05:30N 51°40' W 008°17'2 4.7
2017-Oct-18 05:00N 51°42' W 008°18'5 9.9
2017-Oct-18 04:30N 51°40' W 008°25'4 8.6
2017-Oct-18 04:00N 51°37' W 008°30'510.2
2017-Oct-18 03:30N 51°32' W 008°30'510.3
2017-Oct-18 03:00N 51°27' W 008°30'510.4
2017-Oct-18 02:30N 51°22' W 008°30'510.2
2017-Oct-18 02:00N 51°17' W 008°30'610.2
2017-Oct-18 01:23N 51°10' W 008°30'34 3.9
2017-Oct-17 16:36N 51°06' W 009°24'3 9.7
2017-Oct-17 16:18N 51°07' W 009°27'4 9.7
2017-Oct-17 15:55N 51°10' W 009°31'4 9.8
2017-Oct-17 15:30N 51°13' W 009°36'5 9.9
2017-Oct-17 15:00N 51°17' W 009°41'510.3
2017-Oct-17 14:30N 51°20' W 009°47'510.1
2017-Oct-17 14:00N 51°25' W 009°51'5 9.5
2017-Oct-17 13:31N 51°29' W 009°53'5 9.1
2017-Oct-17 13:00N 51°32' W 009°46'5 9.3
2017-Oct-17 12:30N 51°34' W 009°40'0 0.1
2017-Oct-17 12:00N 51°34' W 009°40'0 0.0
2017-Oct-17 11:30N 51°34' W 009°40'0 0.0
2017-Oct-17 11:00N 51°34' W 009°40'0 0.1
2017-Oct-17 10:30N 51°34' W 009°40'0 0.0
2017-Oct-17 10:00N 51°34' W 009°40'0 0.0
2017-Oct-17 09:30N 51°34' W 009°40'0 0.0
2017-Oct-17 09:00N 51°34' W 009°40'0 0.0
2017-Oct-17 08:30N 51°34' W 009°40'0 0.0
2017-Oct-17 08:00N 51°34' W 009°40'0 0.0
2017-Oct-17 07:30N 51°34' W 009°40'0 0.0
2017-Oct-17 07:00N 51°34' W 009°40'0 0.1
2017-Oct-17 06:30N 51°34' W 009°40'3 6.3
2017-Oct-17 06:00N 51°33' W 009°45'510.0
2017-Oct-17 05:30N 51°31' W 009°52'4 7.1
2017-Oct-17 05:00N 51°34' W 009°51'5 9.2
2017-Oct-17 04:30N 51°38' W 009°46'2 4.6
2017-Oct-17 04:00N 51°39' W 009°49'0 0.1
2017-Oct-17 03:30N 51°39' W 009°49'0 0.0
2017-Oct-17 03:00N 51°39' W 009°49'0 0.0
2017-Oct-17 02:30N 51°39' W 009°49'0 0.0
2017-Oct-17 02:00N 51°39' W 009°49'0 0.0
2017-Oct-17 01:30N 51°39' W 009°49'0 0.0
2017-Oct-17 01:00N 51°39' W 009°49'0 0.0
2017-Oct-17 00:30N 51°39' W 009°49'0 0.0
2017-Oct-17 00:00N 51°39' W 009°49'0 0.0
2017-Oct-16 23:30N 51°39' W 009°49'0 0.0
2017-Oct-16 23:00N 51°39' W 009°49'0 0.0
2017-Oct-16 22:30N 51°39' W 009°49'0 0.0
2017-Oct-16 22:00N 51°39' W 009°49'0 0.0
2017-Oct-16 21:30N 51°39' W 009°49'0 0.0
2017-Oct-16 21:00N 51°39' W 009°49'0 0.0
2017-Oct-16 20:30N 51°39' W 009°49'0 0.0
2017-Oct-16 20:00N 51°39' W 009°49'0 0.0
2017-Oct-16 19:30N 51°39' W 009°49'0 0.0
2017-Oct-16 19:00N 51°39' W 009°49'0 0.0
2017-Oct-16 18:30N 51°39' W 009°49'0 0.1
2017-Oct-16 18:00N 51°39' W 009°49'0 0.0
2017-Oct-16 12:26N 51°39' W 009°49'0 0.0
2017-Oct-16 11:56N 51°39' W 009°49'0 0.0
2017-Oct-16 11:26N 51°39' W 009°49'0 0.0
2017-Oct-16 10:56N 51°39' W 009°49'0 0.0
2017-Oct-16 09:39N 51°39' W 009°49'0 0.1
2017-Oct-16 09:25N 51°39' W 009°49'0 0.0
2017-Oct-16 09:00N 51°39' W 009°49'0 0.0
2017-Oct-16 08:30N 51°39' W 009°49'0 0.0
2017-Oct-16 08:00N 51°39' W 009°49'0 0.0
2017-Oct-16 07:30N 51°39' W 009°49'2 3.3
2017-Oct-16 07:00N 51°39' W 009°46'2 3.9
2017-Oct-16 06:30N 51°37' W 009°47'1 3.0
2017-Oct-16 06:00N 51°36' W 009°49'2 3.1
2017-Oct-16 05:30N 51°36' W 009°52'2 3.8
2017-Oct-16 05:00N 51°35' W 009°54'2 3.6
2017-Oct-16 04:31N 51°34' W 009°57'2 4.2
2017-Oct-16 04:00N 51°34' W 010°00'2 4.2
2017-Oct-16 03:31N 51°34' W 010°04'4 7.4
2017-Oct-16 03:00N 51°33' W 010°10'5 9.7
2017-Oct-16 02:30N 51°33' W 010°17'5 9.5
2017-Oct-16 02:00N 51°36' W 010°24'107 2.5
2017-Oct-14 07:18N 53°13' W 009°11'1410.0
2017-Oct-14 05:57N 53°12' W 009°34'510.1
2017-Oct-14 05:29N 53°12' W 009°41'5 9.9
2017-Oct-14 05:00N 53°12' W 009°49'5 9.7
2017-Oct-14 04:30N 53°13' W 009°57'5 9.2
2017-Oct-14 04:00N 53°14' W 010°04'5 9.2
2017-Oct-14 03:30N 53°18' W 010°10'4 8.7
2017-Oct-14 03:00N 53°21' W 010°15'4 8.2
2017-Oct-14 02:30N 53°24' W 010°19'4 8.2
2017-Oct-14 02:00N 53°28' W 010°22'4 8.0
2017-Oct-14 01:30N 53°31' W 010°25'4 8.0
2017-Oct-14 01:00N 53°35' W 010°27'4 7.4
2017-Oct-14 00:30N 53°39' W 010°27'4 7.4
2017-Oct-14 00:00N 53°42' W 010°27'4 8.0
2017-Oct-13 23:29N 53°46' W 010°26'4 7.7
2017-Oct-13 23:00N 53°50' W 010°25'4 8.2
2017-Oct-13 22:30N 53°54' W 010°25'4 8.4
2017-Oct-13 21:59N 53°59' W 010°25'4 8.0
2017-Oct-13 21:30N 54°03' W 010°25'5 7.8
2017-Oct-13 20:55N 54°07' W 010°24'4 7.0
2017-Oct-13 20:21N 54°10' W 010°21'3 7.1
2017-Oct-13 19:56N 54°13' W 010°18'3 7.4
2017-Oct-13 19:30N 54°16' W 010°15'4 7.2
2017-Oct-13 18:56N 54°19' W 010°12'4 7.2
2017-Oct-13 18:26N 54°22' W 010°08'12 7.1
2017-Oct-13 16:42N 54°32' W 009°56'2 7.0
2017-Oct-13 16:21N 54°34' W 009°52'11 5.7
2017-Oct-13 14:25N 54°41' W 009°38'1 3.0
2017-Oct-13 13:59N 54°42' W 009°36'2 3.9
2017-Oct-13 13:21N 54°43' W 009°33'3 7.6
2017-Oct-13 13:00N 54°42' W 009°29'5 9.3
2017-Oct-13 12:27N 54°38' W 009°23'4 9.1
2017-Oct-13 12:00N 54°35' W 009°18'2 2.8
2017-Oct-13 11:27N 54°36' W 009°16'2 3.6
2017-Oct-13 10:58N 54°36' W 009°13'4 8.2
2017-Oct-13 10:28N 54°37' W 009°06'10 4.8
2017-Oct-13 08:21N 54°42' W 008°51'4 9.2
2017-Oct-13 07:53N 54°46' W 008°48'8 4.3
2017-Oct-13 05:56N 54°52' W 008°38'2 4.0
2017-Oct-13 05:25N 54°54' W 008°38'11 6.1
2017-Oct-13 03:38N 55°05' W 008°32'1 6.0
2017-Oct-13 03:29N 55°05' W 008°31'6 6.1
2017-Oct-13 02:28N 55°10' W 008°24'4 6.4
2017-Oct-13 01:49N 55°12' W 008°18'4 6.8
2017-Oct-13 01:17N 55°14' W 008°12'7 7.2
2017-Oct-13 00:18N 55°16' W 008°01'2 7.1
2017-Oct-12 23:59N 55°17' W 007°57'5 7.4
2017-Oct-12 23:16N 55°19' W 007°48'3 7.2
2017-Oct-12 22:53N 55°20' W 007°44'3 7.6
2017-Oct-12 22:26N 55°21' W 007°38'6 7.3
2017-Oct-12 21:39N 55°23' W 007°29'1 7.1
2017-Oct-12 21:30N 55°24' W 007°27'5 7.3
2017-Oct-12 20:53N 55°25' W 007°19'4 8.9
2017-Oct-12 20:28N 55°24' W 007°13'810.2
2017-Oct-12 19:44N 55°23' W 006°60'311.3
2017-Oct-12 19:28N 55°22' W 006°55'5 9.5
2017-Oct-12 18:58N 55°21' W 006°46'511.3
2017-Oct-12 18:30N 55°20' W 006°37'510.9
2017-Oct-12 18:00N 55°19' W 006°28'1 2.1
2017-Oct-12 17:30N 55°18' W 006°28'2 3.5
2017-Oct-12 17:00N 55°17' W 006°31'3 6.4
2017-Oct-12 16:30N 55°16' W 006°36'611.8
2017-Oct-12 16:00N 55°18' W 006°46'611.4
2017-Oct-12 15:28N 55°20' W 006°56'  
Track history (hours):
 
Tides and Currents Weather Stations Pressure Air Temp Water Temp Dewpoint Dewpoint Depression Visibility Wind Speed Wind Dir Waves Ship Positions

Oceanographic research ship Celtic Explorer (Ireland)

Detailed information on ship capabilities available from University of Delaware's Ocean Information Center.

Last reported at 2017-Oct-22 15:00 UTC. Time now 2017-Oct-22 15:25 UTC.
Position N 51°52' W 007°00'.

Type: . MMSI: 250487000.

Date/timePositionNaut miles runAvg speedWind from/ knotsBaromVisibWave heightAir tempDewpointWater temp
2017-Oct-22 15:00N 51°52' W 007°00'4 9.0
2017-Oct-22 14:30N 51°57' W 007°00'5 9.0
2017-Oct-22 14:00N 52°01' W 007°01'4 7.8
2017-Oct-22 13:30N 52°05' W 007°01'4 7.8
2017-Oct-22 13:00N 52°06' W 007°07'4 8.5
2017-Oct-22 12:30N 52°05' W 007°13'3 5.5
2017-Oct-22 12:00N 52°02' W 007°13'5 9.2
2017-Oct-22 11:30N 51°57' W 007°13'5 9.6
2017-Oct-22 11:00N 51°53' W 007°14'5 9.4
2017-Oct-22 10:30N 51°48' W 007°13'5 9.4
2017-Oct-22 09:59N 51°43' W 007°13'5 9.3
2017-Oct-22 09:29N 51°38' W 007°14'22 3.0
2017-Oct-22 01:57N 51°23' W 007°40'410.1
2017-Oct-22 01:30N 51°27' W 007°45'510.2
2017-Oct-22 01:00N 51°30' W 007°51'510.2
2017-Oct-22 00:30N 51°34' W 007°57'510.2
2017-Oct-22 00:00N 51°37' W 008°02'510.1
2017-Oct-21 23:30N 51°41' W 008°08'4 8.4
2017-Oct-21 23:00N 51°44' W 008°13'3 6.6
2017-Oct-21 22:30N 51°47' W 008°15'4 8.4
2017-Oct-21 22:00N 51°51' W 008°17'4 8.4
2017-Oct-21 21:30N 51°54' W 008°23'3 5.8
2017-Oct-21 21:00N 51°54' W 008°27'0 0.1
2017-Oct-21 20:30N 51°54' W 008°27'0 0.0
2017-Oct-21 19:59N 51°54' W 008°27'0 0.0
2017-Oct-21 19:29N 51°54' W 008°27'0 0.0
2017-Oct-21 18:56N 51°54' W 008°27'0 0.0
2017-Oct-21 18:29N 51°54' W 008°27'0 0.0
2017-Oct-21 17:59N 51°54' W 008°27'0 0.0
2017-Oct-21 17:29N 51°54' W 008°27'0 0.0
2017-Oct-21 16:59N 51°54' W 008°27'0 0.0
2017-Oct-21 16:20N 51°54' W 008°27'0 0.0
2017-Oct-21 15:59N 51°54' W 008°27'0 0.0
2017-Oct-21 15:14N 51°54' W 008°27'0 0.0
2017-Oct-21 14:56N 51°54' W 008°27'0 0.0
2017-Oct-21 13:59N 51°54' W 008°27'0 0.0
2017-Oct-21 13:29N 51°54' W 008°27'0 0.0
2017-Oct-21 12:59N 51°54' W 008°27'0 0.0
2017-Oct-21 12:29N 51°54' W 008°27'0 0.0
2017-Oct-21 11:59N 51°54' W 008°27'0 0.0
2017-Oct-21 11:26N 51°54' W 008°27'0 0.0
2017-Oct-21 10:59N 51°54' W 008°27'0 0.0
2017-Oct-21 10:29N 51°54' W 008°27'0 0.0
2017-Oct-21 09:56N 51°54' W 008°27'0 0.0
2017-Oct-21 09:29N 51°54' W 008°27'0 0.0
2017-Oct-21 08:59N 51°54' W 008°27'0 0.0
2017-Oct-21 08:29N 51°54' W 008°27'0 0.0
2017-Oct-21 07:59N 51°54' W 008°27'0 0.0
2017-Oct-21 07:29N 51°54' W 008°27'0 0.0
2017-Oct-21 06:50N 51°54' W 008°27'0 0.0
2017-Oct-21 06:29N 51°54' W 008°27'0 0.0
2017-Oct-21 05:59N 51°54' W 008°27'0 0.0
2017-Oct-21 05:29N 51°54' W 008°27'0 0.0
2017-Oct-21 04:59N 51°54' W 008°27'0 0.0
2017-Oct-21 04:26N 51°54' W 008°27'0 0.0
2017-Oct-21 03:59N 51°54' W 008°27'0 0.0
2017-Oct-21 03:29N 51°54' W 008°27'0 0.0
2017-Oct-21 02:59N 51°54' W 008°27'0 0.0
2017-Oct-21 02:29N 51°54' W 008°27'0 0.0
2017-Oct-21 01:59N 51°54' W 008°27'0 0.0
2017-Oct-21 01:17N 51°54' W 008°27'0 0.0
2017-Oct-21 00:56N 51°54' W 008°27'0 0.0
2017-Oct-21 00:29N 51°54' W 008°27'0 0.0
2017-Oct-20 23:59N 51°54' W 008°27'0 0.0
2017-Oct-20 23:29N 51°54' W 008°27'0 0.0
2017-Oct-20 22:59N 51°54' W 008°27'0 0.0
2017-Oct-20 22:29N 51°54' W 008°27'0 0.0
2017-Oct-20 21:56N 51°54' W 008°27'0 0.0
2017-Oct-20 21:29N 51°54' W 008°27'0 0.0
2017-Oct-20 20:56N 51°54' W 008°27'0 0.0
2017-Oct-20 20:30N 51°54' W 008°27'2 3.8
2017-Oct-20 20:00N 51°54' W 008°24'4 8.6
2017-Oct-20 19:30N 51°51' W 008°20'3 6.1
2017-Oct-20 19:00N 51°49' W 008°16'510.3
2017-Oct-20 18:30N 51°44' W 008°13'510.5
2017-Oct-20 18:00N 51°40' W 008°07'510.8
2017-Oct-20 17:30N 51°36' W 008°01'510.8
2017-Oct-20 17:00N 51°33' W 007°54'510.6
2017-Oct-20 16:30N 51°29' W 007°48'510.8
2017-Oct-20 16:00N 51°25' W 007°42'12 1.9
2017-Oct-20 09:37N 51°18' W 007°26'1 4.3
2017-Oct-20 09:29N 51°19' W 007°26'21 7.9
2017-Oct-20 06:53N 51°40' W 007°26'4 8.5
2017-Oct-20 06:24N 51°44' W 007°26'2 4.2
2017-Oct-20 06:00N 51°45' W 007°26'4 8.7
2017-Oct-20 05:30N 51°50' W 007°26'4 8.9
2017-Oct-20 05:00N 51°54' W 007°26'5 9.1
2017-Oct-20 04:30N 51°59' W 007°26'3 6.5
2017-Oct-20 04:00N 52°02' W 007°26'1 2.7
2017-Oct-20 03:30N 52°02' W 007°28'5 9.7
2017-Oct-20 02:57N 51°58' W 007°34'4 9.0
2017-Oct-20 02:30N 51°55' W 007°39'5 9.3
2017-Oct-20 02:00N 51°51' W 007°39'5 9.4
2017-Oct-20 01:30N 51°46' W 007°39'4 8.9
2017-Oct-20 01:00N 51°41' W 007°39'4 8.5
2017-Oct-20 00:30N 51°37' W 007°39'4 7.9
2017-Oct-20 00:00N 51°33' W 007°39'4 7.3
2017-Oct-19 23:30N 51°30' W 007°39'3 6.8
2017-Oct-19 23:00N 51°26' W 007°39'4 6.4
2017-Oct-19 22:20N 51°22' W 007°39'2 5.8
2017-Oct-19 21:56N 51°19' W 007°39'16 1.0
2017-Oct-19 06:44N 51°06' W 007°51'3 7.7
2017-Oct-19 06:24N 51°08' W 007°51'3 7.8
2017-Oct-19 05:58N 51°12' W 007°52'4 7.7
2017-Oct-19 05:29N 51°15' W 007°51'4 7.6
2017-Oct-19 05:00N 51°19' W 007°51'4 7.5
2017-Oct-19 04:30N 51°23' W 007°51'4 7.5
2017-Oct-19 04:00N 51°27' W 007°51'4 7.7
2017-Oct-19 03:30N 51°30' W 007°51'4 7.8
2017-Oct-19 03:00N 51°34' W 007°51'4 8.1
2017-Oct-19 02:30N 51°38' W 007°52'4 8.1
2017-Oct-19 02:00N 51°42' W 007°51'4 8.1
2017-Oct-19 01:30N 51°46' W 007°51'3 5.5
2017-Oct-19 01:00N 51°49' W 007°53'3 6.3
2017-Oct-19 00:30N 51°47' W 007°57'5 9.6
2017-Oct-19 00:00N 51°45' W 008°04'510.1
2017-Oct-18 23:30N 51°40' W 008°05'510.2
2017-Oct-18 23:00N 51°35' W 008°04'510.1
2017-Oct-18 22:30N 51°30' W 008°05'5 9.9
2017-Oct-18 22:00N 51°25' W 008°05'5 9.8
2017-Oct-18 21:30N 51°20' W 008°05'5 9.7
2017-Oct-18 21:00N 51°15' W 008°05'5 9.8
2017-Oct-18 20:30N 51°11' W 008°05'5 9.8
2017-Oct-18 20:00N 51°06' W 008°05'6 9.6
2017-Oct-18 19:24N 50°60' W 008°05'16 1.8
2017-Oct-18 10:14N 51°14' W 008°17'2 8.3
2017-Oct-18 09:59N 51°16' W 008°17'3 5.8
2017-Oct-18 09:30N 51°19' W 008°17'2 4.8
2017-Oct-18 09:00N 51°21' W 008°17'5 9.2
2017-Oct-18 08:30N 51°26' W 008°17'0 0.2
2017-Oct-18 08:00N 51°26' W 008°18'2 4.2
2017-Oct-18 07:30N 51°24' W 008°17'2 4.2
2017-Oct-18 07:00N 51°26' W 008°17'5 9.3
2017-Oct-18 06:30N 51°31' W 008°17'5 9.5
2017-Oct-18 06:00N 51°35' W 008°18'5 9.4
2017-Oct-18 05:30N 51°40' W 008°17'2 4.7
2017-Oct-18 05:00N 51°42' W 008°18'5 9.9
2017-Oct-18 04:30N 51°40' W 008°25'4 8.6
2017-Oct-18 04:00N 51°37' W 008°30'510.2
2017-Oct-18 03:30N 51°32' W 008°30'510.3
2017-Oct-18 03:00N 51°27' W 008°30'510.4
2017-Oct-18 02:30N 51°22' W 008°30'510.2
2017-Oct-18 02:00N 51°17' W 008°30'610.2
2017-Oct-18 01:23N 51°10' W 008°30'34 3.9
2017-Oct-17 16:36N 51°06' W 009°24'3 9.7
2017-Oct-17 16:18N 51°07' W 009°27'4 9.7
2017-Oct-17 15:55N 51°10' W 009°31'4 9.8
2017-Oct-17 15:30N 51°13' W 009°36'5 9.9
2017-Oct-17 15:00N 51°17' W 009°41'510.3
2017-Oct-17 14:30N 51°20' W 009°47'510.1
2017-Oct-17 14:00N 51°25' W 009°51'5 9.5
2017-Oct-17 13:31N 51°29' W 009°53'5 9.1
2017-Oct-17 13:00N 51°32' W 009°46'5 9.3
2017-Oct-17 12:30N 51°34' W 009°40'0 0.1
2017-Oct-17 12:00N 51°34' W 009°40'0 0.0
2017-Oct-17 11:30N 51°34' W 009°40'0 0.0
2017-Oct-17 11:00N 51°34' W 009°40'0 0.1
2017-Oct-17 10:30N 51°34' W 009°40'0 0.0
2017-Oct-17 10:00N 51°34' W 009°40'0 0.0
2017-Oct-17 09:30N 51°34' W 009°40'0 0.0
2017-Oct-17 09:00N 51°34' W 009°40'0 0.0
2017-Oct-17 08:30N 51°34' W 009°40'0 0.0
2017-Oct-17 08:00N 51°34' W 009°40'0 0.0
2017-Oct-17 07:30N 51°34' W 009°40'0 0.0
2017-Oct-17 07:00N 51°34' W 009°40'0 0.1
2017-Oct-17 06:30N 51°34' W 009°40'3 6.3
2017-Oct-17 06:00N 51°33' W 009°45'510.0
2017-Oct-17 05:30N 51°31' W 009°52'4 7.1
2017-Oct-17 05:00N 51°34' W 009°51'5 9.2
2017-Oct-17 04:30N 51°38' W 009°46'2 4.6
2017-Oct-17 04:00N 51°39' W 009°49'0 0.1
2017-Oct-17 03:30N 51°39' W 009°49'0 0.0
2017-Oct-17 03:00N 51°39' W 009°49'0 0.0
2017-Oct-17 02:30N 51°39' W 009°49'0 0.0
2017-Oct-17 02:00N 51°39' W 009°49'0 0.0
2017-Oct-17 01:30N 51°39' W 009°49'0 0.0
2017-Oct-17 01:00N 51°39' W 009°49'0 0.0
2017-Oct-17 00:30N 51°39' W 009°49'0 0.0
2017-Oct-17 00:00N 51°39' W 009°49'0 0.0
2017-Oct-16 23:30N 51°39' W 009°49'0 0.0
2017-Oct-16 23:00N 51°39' W 009°49'0 0.0
2017-Oct-16 22:30N 51°39' W 009°49'0 0.0
2017-Oct-16 22:00N 51°39' W 009°49'0 0.0
2017-Oct-16 21:30N 51°39' W 009°49'0 0.0
2017-Oct-16 21:00N 51°39' W 009°49'0 0.0
2017-Oct-16 20:30N 51°39' W 009°49'0 0.0
2017-Oct-16 20:00N 51°39' W 009°49'0 0.0
2017-Oct-16 19:30N 51°39' W 009°49'0 0.0
2017-Oct-16 19:00N 51°39' W 009°49'0 0.0
2017-Oct-16 18:30N 51°39' W 009°49'0 0.1
2017-Oct-16 18:00N 51°39' W 009°49'0 0.0
2017-Oct-16 12:26N 51°39' W 009°49'0 0.0
2017-Oct-16 11:56N 51°39' W 009°49'0 0.0
2017-Oct-16 11:26N 51°39' W 009°49'0 0.0
2017-Oct-16 10:56N 51°39' W 009°49'0 0.0
2017-Oct-16 09:39N 51°39' W 009°49'0 0.1
2017-Oct-16 09:25N 51°39' W 009°49'0 0.0
2017-Oct-16 09:00N 51°39' W 009°49'0 0.0
2017-Oct-16 08:30N 51°39' W 009°49'0 0.0
2017-Oct-16 08:00N 51°39' W 009°49'0 0.0
2017-Oct-16 07:30N 51°39' W 009°49'2 3.3
2017-Oct-16 07:00N 51°39' W 009°46'2 3.9
2017-Oct-16 06:30N 51°37' W 009°47'1 3.0
2017-Oct-16 06:00N 51°36' W 009°49'2 3.1
2017-Oct-16 05:30N 51°36' W 009°52'2 3.8
2017-Oct-16 05:00N 51°35' W 009°54'2 3.6
2017-Oct-16 04:31N 51°34' W 009°57'2 4.2
2017-Oct-16 04:00N 51°34' W 010°00'2 4.2
2017-Oct-16 03:31N 51°34' W 010°04'4 7.4
2017-Oct-16 03:00N 51°33' W 010°10'5 9.7
2017-Oct-16 02:30N 51°33' W 010°17'5 9.5
2017-Oct-16 02:00N 51°36' W 010°24'107 2.5
2017-Oct-14 07:18N 53°13' W 009°11'1410.0
2017-Oct-14 05:57N 53°12' W 009°34'510.1
2017-Oct-14 05:29N 53°12' W 009°41'5 9.9
2017-Oct-14 05:00N 53°12' W 009°49'5 9.7
2017-Oct-14 04:30N 53°13' W 009°57'5 9.2
2017-Oct-14 04:00N 53°14' W 010°04'5 9.2
2017-Oct-14 03:30N 53°18' W 010°10'4 8.7
2017-Oct-14 03:00N 53°21' W 010°15'4 8.2
2017-Oct-14 02:30N 53°24' W 010°19'4 8.2
2017-Oct-14 02:00N 53°28' W 010°22'4 8.0
2017-Oct-14 01:30N 53°31' W 010°25'4 8.0
2017-Oct-14 01:00N 53°35' W 010°27'4 7.4
2017-Oct-14 00:30N 53°39' W 010°27'4 7.4
2017-Oct-14 00:00N 53°42' W 010°27'4 8.0
2017-Oct-13 23:29N 53°46' W 010°26'4 7.7
2017-Oct-13 23:00N 53°50' W 010°25'4 8.2
2017-Oct-13 22:30N 53°54' W 010°25'4 8.4
2017-Oct-13 21:59N 53°59' W 010°25'4 8.0
2017-Oct-13 21:30N 54°03' W 010°25'5 7.8
2017-Oct-13 20:55N 54°07' W 010°24'4 7.0
2017-Oct-13 20:21N 54°10' W 010°21'3 7.1
2017-Oct-13 19:56N 54°13' W 010°18'3 7.4
2017-Oct-13 19:30N 54°16' W 010°15'4 7.2
2017-Oct-13 18:56N 54°19' W 010°12'4 7.2
2017-Oct-13 18:26N 54°22' W 010°08'12 7.1
2017-Oct-13 16:42N 54°32' W 009°56'2 7.0
2017-Oct-13 16:21N 54°34' W 009°52'11 5.7
2017-Oct-13 14:25N 54°41' W 009°38'1 3.0
2017-Oct-13 13:59N 54°42' W 009°36'2 3.9
2017-Oct-13 13:21N 54°43' W 009°33'3 7.6
2017-Oct-13 13:00N 54°42' W 009°29'5 9.3
2017-Oct-13 12:27N 54°38' W 009°23'4 9.1
2017-Oct-13 12:00N 54°35' W 009°18'2 2.8
2017-Oct-13 11:27N 54°36' W 009°16'2 3.6
2017-Oct-13 10:58N 54°36' W 009°13'4 8.2
2017-Oct-13 10:28N 54°37' W 009°06'10 4.8
2017-Oct-13 08:21N 54°42' W 008°51'4 9.2
2017-Oct-13 07:53N 54°46' W 008°48'8 4.3
2017-Oct-13 05:56N 54°52' W 008°38'2 4.0
2017-Oct-13 05:25N 54°54' W 008°38'11 6.1
2017-Oct-13 03:38N 55°05' W 008°32'1 6.0
2017-Oct-13 03:29N 55°05' W 008°31'6 6.1
2017-Oct-13 02:28N 55°10' W 008°24'4 6.4
2017-Oct-13 01:49N 55°12' W 008°18'4 6.8
2017-Oct-13 01:17N 55°14' W 008°12'7 7.2
2017-Oct-13 00:18N 55°16' W 008°01'2 7.1
2017-Oct-12 23:59N 55°17' W 007°57'5 7.4
2017-Oct-12 23:16N 55°19' W 007°48'3 7.2
2017-Oct-12 22:53N 55°20' W 007°44'3 7.6
2017-Oct-12 22:26N 55°21' W 007°38'6 7.3
2017-Oct-12 21:39N 55°23' W 007°29'1 7.1
2017-Oct-12 21:30N 55°24' W 007°27'5 7.3
2017-Oct-12 20:53N 55°25' W 007°19'4 8.9
2017-Oct-12 20:28N 55°24' W 007°13'810.2
2017-Oct-12 19:44N 55°23' W 006°60'311.3
2017-Oct-12 19:28N 55°22' W 006°55'5 9.5
2017-Oct-12 18:58N 55°21' W 006°46'511.3
2017-Oct-12 18:30N 55°20' W 006°37'510.9
2017-Oct-12 18:00N 55°19' W 006°28'1 2.1
2017-Oct-12 17:30N 55°18' W 006°28'2 3.5
2017-Oct-12 17:00N 55°17' W 006°31'3 6.4
2017-Oct-12 16:30N 55°16' W 006°36'611.8
2017-Oct-12 16:00N 55°18' W 006°46'611.4
2017-Oct-12 15:28N 55°20' W 006°56'  

Dump ship's entire track history